KCGI/CGI METAR and TAF weather

Enter ICAO airport designator
Station Type Date Time Source
KCGI METAR 2024/05/28 22:53 UTC NOAA

KCGI 282253Z 33010G18KT 10SM CLR 28/09 A3004 RMK AO2 RAE00 SLP169 P0000 T02780089


Station Type Date Time Source
KCGI Decoded METAR 2024/05/28 22:53 UTC NOAA

CAPE GIRARDEAU REGIONAL, MO, United States (KCGI) 37-14N 089-35W 102M
May 28, 2024 - 06:53 PM EDT / 2024.05.28 2253 UTC
Wind: from the NNW (330 degrees) at 12 MPH (10 KT) gusting to 21 MPH (18 KT):0
Visibility: 10 mile(s):0
Sky conditions: clear
Precipitation last hour: A trace
Temperature: 82.0 F (27.8 C)
Dew Point: 48.0 F (8.9 C)
Relative Humidity: 30%
Pressure (altimeter): 30.04 in. Hg (1017 hPa)
ob: KCGI 282253Z 33010G18KT 10SM CLR 28/09 A3004 RMK AO2 RAE00 SLP169 P0000 T02780089
cycle: 23

Station Type Date Time Source
KCGI TAF 2024/05/28 18:33 UTC NOAA